sensor_id;sensor_type;location;lat;lon;timestamp;P1;durP1;ratioP1;P2;durP2;ratioP2
71387;SDS011;59201;59.902;10.520;2023-03-21T00:02:04;5.88;;;1.15;;
71387;SDS011;59201;59.902;10.520;2023-03-21T00:04:35;6.30;;;1.33;;
71387;SDS011;59201;59.902;10.520;2023-03-21T00:07:04;4.15;;;1.10;;
71387;SDS011;59201;59.902;10.520;2023-03-21T00:09:34;5.80;;;1.20;;
71387;SDS011;59201;59.902;10.520;2023-03-21T00:12:02;4.57;;;1.30;;
71387;SDS011;59201;59.902;10.520;2023-03-21T00:14:35;4.78;;;1.10;;
71387;SDS011;59201;59.902;10.520;2023-03-21T00:17:03;4.43;;;1.38;;
71387;SDS011;59201;59.902;10.520;2023-03-21T00:19:32;4.97;;;1.25;;
71387;SDS011;59201;59.902;10.520;2023-03-21T00:22:03;5.22;;;1.30;;
71387;SDS011;59201;59.902;10.520;2023-03-21T00:24:32;5.27;;;1.60;;
71387;SDS011;59201;59.902;10.520;2023-03-21T00:27:00;6.30;;;1.75;;
71387;SDS011;59201;59.902;10.520;2023-03-21T00:29:29;5.60;;;1.45;;
71387;SDS011;59201;59.902;10.520;2023-03-21T00:32:00;5.50;;;1.50;;
71387;SDS011;59201;59.902;10.520;2023-03-21T00:34:28;5.40;;;1.60;;
71387;SDS011;59201;59.902;10.520;2023-03-21T00:36:58;5.27;;;1.53;;
71387;SDS011;59201;59.902;10.520;2023-03-21T00:39:27;6.30;;;1.70;;
71387;SDS011;59201;59.902;10.520;2023-03-21T00:41:55;6.35;;;1.70;;
71387;SDS011;59201;59.902;10.520;2023-03-21T00:44:28;5.68;;;1.67;;
71387;SDS011;59201;59.902;10.520;2023-03-21T00:47:02;7.50;;;2.05;;
71387;SDS011;59201;59.902;10.520;2023-03-21T00:49:33;4.63;;;1.23;;
71387;SDS011;59201;59.902;10.520;2023-03-21T00:52:07;5.45;;;1.60;;
71387;SDS011;59201;59.902;10.520;2023-03-21T00:54:35;6.93;;;1.80;;
71387;SDS011;59201;59.902;10.520;2023-03-21T00:57:04;5.60;;;1.52;;
71387;SDS011;59201;59.902;10.520;2023-03-21T00:59:32;4.15;;;1.30;;
71387;SDS011;59201;59.902;10.520;2023-03-21T01:02:02;4.97;;;1.20;;
71387;SDS011;59201;59.902;10.520;2023-03-21T01:04:32;4.40;;;1.10;;
71387;SDS011;59201;59.902;10.520;2023-03-21T01:07:02;4.20;;;0.93;;
71387;SDS011;59201;59.902;10.520;2023-03-21T01:09:32;3.30;;;1.02;;
71387;SDS011;59201;59.902;10.520;2023-03-21T01:12:02;3.85;;;1.17;;
71387;SDS011;59201;59.902;10.520;2023-03-21T01:14:30;3.00;;;0.90;;
71387;SDS011;59201;59.902;10.520;2023-03-21T01:16:59;4.43;;;1.00;;
71387;SDS011;59201;59.902;10.520;2023-03-21T01:19:27;4.20;;;0.98;;
71387;SDS011;59201;59.902;10.520;2023-03-21T01:21:55;4.70;;;1.20;;
71387;SDS011;59201;59.902;10.520;2023-03-21T01:24:26;4.43;;;1.02;;
71387;SDS011;59201;59.902;10.520;2023-03-21T01:26:56;4.57;;;1.10;;
71387;SDS011;59201;59.902;10.520;2023-03-21T01:29:25;5.82;;;1.20;;
71387;SDS011;59201;59.902;10.520;2023-03-21T01:31:53;4.93;;;1.15;;
71387;SDS011;59201;59.902;10.520;2023-03-21T01:34:23;6.05;;;1.48;;
71387;SDS011;59201;59.902;10.520;2023-03-21T01:36:54;3.80;;;1.10;;
71387;SDS011;59201;59.902;10.520;2023-03-21T01:39:24;4.43;;;1.13;;
71387;SDS011;59201;59.902;10.520;2023-03-21T01:41:52;7.75;;;1.30;;
71387;SDS011;59201;59.902;10.520;2023-03-21T01:44:21;3.05;;;1.00;;
71387;SDS011;59201;59.902;10.520;2023-03-21T01:46:50;5.63;;;1.10;;
71387;SDS011;59201;59.902;10.520;2023-03-21T01:49:24;4.90;;;1.30;;
71387;SDS011;59201;59.902;10.520;2023-03-21T01:52:02;3.77;;;0.97;;
71387;SDS011;59201;59.902;10.520;2023-03-21T01:54:31;3.58;;;1.08;;
71387;SDS011;59201;59.902;10.520;2023-03-21T01:57:03;4.10;;;1.00;;
71387;SDS011;59201;59.902;10.520;2023-03-21T02:02:02;2.97;;;0.70;;
71387;SDS011;59201;59.902;10.520;2023-03-21T02:04:33;4.93;;;0.77;;
71387;SDS011;59201;59.902;10.520;2023-03-21T02:07:06;3.70;;;0.80;;
71387;SDS011;59201;59.902;10.520;2023-03-21T02:09:36;3.90;;;1.00;;
71387;SDS011;59201;59.902;10.520;2023-03-21T02:12:07;3.88;;;0.80;;
71387;SDS011;59201;59.902;10.520;2023-03-21T02:14:37;3.10;;;0.80;;
71387;SDS011;59201;59.902;10.520;2023-03-21T02:42:06;3.83;;;0.90;;
71387;SDS011;59201;59.902;10.520;2023-03-21T02:44:41;4.77;;;1.00;;
71387;SDS011;59201;59.902;10.520;2023-03-21T02:47:13;3.22;;;0.90;;
71387;SDS011;59201;59.902;10.520;2023-03-21T02:52:32;2.50;;;0.80;;
71387;SDS011;59201;59.902;10.520;2023-03-21T02:55:01;3.20;;;0.70;;
71387;SDS011;59201;59.902;10.520;2023-03-21T02:57:31;3.93;;;1.00;;
71387;SDS011;59201;59.902;10.520;2023-03-21T02:59:59;4.68;;;0.98;;
71387;SDS011;59201;59.902;10.520;2023-03-21T03:02:32;3.30;;;0.90;;
71387;SDS011;59201;59.902;10.520;2023-03-21T03:05:00;4.15;;;0.90;;
71387;SDS011;59201;59.902;10.520;2023-03-21T03:10:30;2.80;;;0.80;;
71387;SDS011;59201;59.902;10.520;2023-03-21T03:21:16;3.92;;;1.08;;
71387;SDS011;59201;59.902;10.520;2023-03-21T03:26:18;3.72;;;0.80;;
71387;SDS011;59201;59.902;10.520;2023-03-21T03:28:50;5.90;;;1.00;;
71387;SDS011;59201;59.902;10.520;2023-03-21T03:31:22;5.40;;;1.30;;
71387;SDS011;59201;59.902;10.520;2023-03-21T03:33:51;4.80;;;1.27;;
71387;SDS011;59201;59.902;10.520;2023-03-21T03:36:21;3.97;;;1.03;;
71387;SDS011;59201;59.902;10.520;2023-03-21T03:38:52;3.35;;;0.90;;
71387;SDS011;59201;59.902;10.520;2023-03-21T03:41:23;4.40;;;0.90;;
71387;SDS011;59201;59.902;10.520;2023-03-21T03:43:56;3.92;;;0.82;;
71387;SDS011;59201;59.902;10.520;2023-03-21T03:46:31;3.95;;;0.80;;
71387;SDS011;59201;59.902;10.520;2023-03-21T03:49:23;3.43;;;0.80;;
71387;SDS011;59201;59.902;10.520;2023-03-21T03:54:30;2.30;;;0.70;;
71387;SDS011;59201;59.902;10.520;2023-03-21T03:56:59;3.75;;;0.70;;
71387;SDS011;59201;59.902;10.520;2023-03-21T03:59:29;2.55;;;0.70;;
71387;SDS011;59201;59.902;10.520;2023-03-21T04:01:59;1.47;;;0.60;;
71387;SDS011;59201;59.902;10.520;2023-03-21T04:04:28;1.88;;;0.60;;
71387;SDS011;59201;59.902;10.520;2023-03-21T04:06:56;3.67;;;0.80;;
71387;SDS011;59201;59.902;10.520;2023-03-21T04:09:24;3.20;;;0.82;;
71387;SDS011;59201;59.902;10.520;2023-03-21T04:11:53;3.65;;;0.90;;
71387;SDS011;59201;59.902;10.520;2023-03-21T04:14:23;2.80;;;0.73;;
71387;SDS011;59201;59.902;10.520;2023-03-21T04:16:52;2.92;;;0.65;;
71387;SDS011;59201;59.902;10.520;2023-03-21T04:19:21;3.28;;;0.90;;
71387;SDS011;59201;59.902;10.520;2023-03-21T04:21:50;2.58;;;0.77;;
71387;SDS011;59201;59.902;10.520;2023-03-21T04:24:18;3.53;;;0.90;;
71387;SDS011;59201;59.902;10.520;2023-03-21T04:26:45;3.30;;;0.90;;
71387;SDS011;59201;59.902;10.520;2023-03-21T04:29:20;4.40;;;1.05;;
71387;SDS011;59201;59.902;10.520;2023-03-21T04:31:49;4.53;;;0.90;;
71387;SDS011;59201;59.902;10.520;2023-03-21T04:34:18;3.83;;;1.00;;
71387;SDS011;59201;59.902;10.520;2023-03-21T04:36:51;3.63;;;0.90;;
71387;SDS011;59201;59.902;10.520;2023-03-21T04:39:19;4.03;;;0.90;;
71387;SDS011;59201;59.902;10.520;2023-03-21T04:41:50;3.50;;;0.90;;
71387;SDS011;59201;59.902;10.520;2023-03-21T04:44:18;3.45;;;1.10;;
71387;SDS011;59201;59.902;10.520;2023-03-21T04:46:47;3.88;;;1.00;;
71387;SDS011;59201;59.902;10.520;2023-03-21T04:49:15;3.83;;;1.10;;
71387;SDS011;59201;59.902;10.520;2023-03-21T04:51:44;5.37;;;1.20;;
71387;SDS011;59201;59.902;10.520;2023-03-21T04:54:14;4.70;;;1.10;;
71387;SDS011;59201;59.902;10.520;2023-03-21T04:56:42;3.80;;;1.00;;
71387;SDS011;59201;59.902;10.520;2023-03-21T04:59:14;3.88;;;1.00;;
71387;SDS011;59201;59.902;10.520;2023-03-21T05:01:46;3.33;;;0.90;;
71387;SDS011;59201;59.902;10.520;2023-03-21T05:04:16;4.13;;;0.90;;
71387;SDS011;59201;59.902;10.520;2023-03-21T05:06:45;3.90;;;0.80;;
71387;SDS011;59201;59.902;10.520;2023-03-21T05:09:15;3.15;;;0.80;;
71387;SDS011;59201;59.902;10.520;2023-03-21T05:11:44;4.82;;;1.50;;
71387;SDS011;59201;59.902;10.520;2023-03-21T05:14:18;4.63;;;1.35;;
71387;SDS011;59201;59.902;10.520;2023-03-21T05:16:47;4.90;;;1.17;;
71387;SDS011;59201;59.902;10.520;2023-03-21T05:19:19;4.10;;;1.10;;
71387;SDS011;59201;59.902;10.520;2023-03-21T05:21:49;5.90;;;1.08;;
71387;SDS011;59201;59.902;10.520;2023-03-21T05:24:19;4.30;;;1.15;;
71387;SDS011;59201;59.902;10.520;2023-03-21T05:26:47;3.67;;;1.00;;
71387;SDS011;59201;59.902;10.520;2023-03-21T05:29:18;5.00;;;0.90;;
71387;SDS011;59201;59.902;10.520;2023-03-21T05:31:46;4.60;;;1.13;;
71387;SDS011;59201;59.902;10.520;2023-03-21T05:34:15;5.03;;;1.40;;
71387;SDS011;59201;59.902;10.520;2023-03-21T05:36:44;4.90;;;1.70;;
71387;SDS011;59201;59.902;10.520;2023-03-21T05:39:13;5.07;;;1.58;;
71387;SDS011;59201;59.902;10.520;2023-03-21T05:41:41;5.00;;;1.53;;
71387;SDS011;59201;59.902;10.520;2023-03-21T05:44:08;5.22;;;1.50;;
71387;SDS011;59201;59.902;10.520;2023-03-21T05:46:36;3.80;;;1.10;;
71387;SDS011;59201;59.902;10.520;2023-03-21T05:49:06;5.28;;;1.48;;
71387;SDS011;59201;59.902;10.520;2023-03-21T05:51:36;3.97;;;1.30;;
71387;SDS011;59201;59.902;10.520;2023-03-21T05:54:09;4.93;;;1.53;;
71387;SDS011;59201;59.902;10.520;2023-03-21T05:56:41;5.40;;;1.48;;
71387;SDS011;59201;59.902;10.520;2023-03-21T05:59:11;5.07;;;1.40;;
71387;SDS011;59201;59.902;10.520;2023-03-21T06:01:39;4.05;;;1.17;;
71387;SDS011;59201;59.902;10.520;2023-03-21T06:04:08;4.60;;;1.30;;
71387;SDS011;59201;59.902;10.520;2023-03-21T06:06:42;4.60;;;1.43;;
71387;SDS011;59201;59.902;10.520;2023-03-21T06:09:11;6.88;;;1.50;;
71387;SDS011;59201;59.902;10.520;2023-03-21T06:11:41;5.30;;;1.60;;
71387;SDS011;59201;59.902;10.520;2023-03-21T06:14:10;4.40;;;1.23;;
71387;SDS011;59201;59.902;10.520;2023-03-21T06:16:37;6.93;;;2.28;;
71387;SDS011;59201;59.902;10.520;2023-03-21T06:19:09;8.47;;;2.47;;
71387;SDS011;59201;59.902;10.520;2023-03-21T06:21:37;6.20;;;2.15;;
71387;SDS011;59201;59.902;10.520;2023-03-21T06:24:05;6.03;;;1.73;;
71387;SDS011;59201;59.902;10.520;2023-03-21T06:26:34;6.22;;;1.75;;
71387;SDS011;59201;59.902;10.520;2023-03-21T06:29:03;5.40;;;1.80;;
71387;SDS011;59201;59.902;10.520;2023-03-21T06:31:32;6.30;;;1.70;;
71387;SDS011;59201;59.902;10.520;2023-03-21T06:34:01;7.35;;;1.77;;
71387;SDS011;59201;59.902;10.520;2023-03-21T06:36:31;7.75;;;1.95;;
71387;SDS011;59201;59.902;10.520;2023-03-21T06:39:00;8.25;;;2.47;;
71387;SDS011;59201;59.902;10.520;2023-03-21T06:41:33;8.10;;;3.17;;
71387;SDS011;59201;59.902;10.520;2023-03-21T06:44:04;7.60;;;2.90;;
71387;SDS011;59201;59.902;10.520;2023-03-21T06:46:35;7.35;;;2.55;;
71387;SDS011;59201;59.902;10.520;2023-03-21T06:49:05;7.93;;;2.30;;
71387;SDS011;59201;59.902;10.520;2023-03-21T06:51:35;7.32;;;2.50;;
71387;SDS011;59201;59.902;10.520;2023-03-21T06:54:04;6.97;;;2.25;;
71387;SDS011;59201;59.902;10.520;2023-03-21T06:56:33;5.63;;;2.20;;
71387;SDS011;59201;59.902;10.520;2023-03-21T06:59:02;7.13;;;2.22;;
71387;SDS011;59201;59.902;10.520;2023-03-21T07:01:34;6.78;;;2.35;;
71387;SDS011;59201;59.902;10.520;2023-03-21T07:04:03;8.00;;;1.63;;
71387;SDS011;59201;59.902;10.520;2023-03-21T07:06:31;5.40;;;2.03;;
71387;SDS011;59201;59.902;10.520;2023-03-21T07:08:59;5.93;;;1.70;;
71387;SDS011;59201;59.902;10.520;2023-03-21T07:11:28;6.30;;;1.80;;
71387;SDS011;59201;59.902;10.520;2023-03-21T07:14:00;5.93;;;1.90;;
71387;SDS011;59201;59.902;10.520;2023-03-21T07:16:29;6.53;;;1.90;;
71387;SDS011;59201;59.902;10.520;2023-03-21T07:18:57;6.70;;;1.52;;
71387;SDS011;59201;59.902;10.520;2023-03-21T07:21:26;6.57;;;1.47;;
71387;SDS011;59201;59.902;10.520;2023-03-21T07:23:56;5.25;;;1.50;;
71387;SDS011;59201;59.902;10.520;2023-03-21T07:26:24;5.75;;;1.63;;
71387;SDS011;59201;59.902;10.520;2023-03-21T07:28:53;5.63;;;1.75;;
71387;SDS011;59201;59.902;10.520;2023-03-21T07:31:21;6.95;;;2.00;;
71387;SDS011;59201;59.902;10.520;2023-03-21T07:33:51;4.90;;;1.70;;
71387;SDS011;59201;59.902;10.520;2023-03-21T07:36:22;5.65;;;1.80;;
71387;SDS011;59201;59.902;10.520;2023-03-21T07:38:51;5.75;;;1.77;;
71387;SDS011;59201;59.902;10.520;2023-03-21T07:41:21;7.93;;;1.80;;
71387;SDS011;59201;59.902;10.520;2023-03-21T07:43:49;6.50;;;1.80;;
71387;SDS011;59201;59.902;10.520;2023-03-21T07:46:17;4.83;;;1.60;;
71387;SDS011;59201;59.902;10.520;2023-03-21T07:48:45;4.55;;;1.50;;
71387;SDS011;59201;59.902;10.520;2023-03-21T07:51:14;7.35;;;1.67;;
71387;SDS011;59201;59.902;10.520;2023-03-21T07:53:44;6.47;;;1.95;;
71387;SDS011;59201;59.902;10.520;2023-03-21T07:56:13;6.30;;;1.90;;
71387;SDS011;59201;59.902;10.520;2023-03-21T07:58:44;6.57;;;2.43;;
71387;SDS011;59201;59.902;10.520;2023-03-21T08:01:11;5.28;;;1.70;;
71387;SDS011;59201;59.902;10.520;2023-03-21T08:03:41;6.03;;;2.20;;
71387;SDS011;59201;59.902;10.520;2023-03-21T08:06:14;5.70;;;1.73;;
71387;SDS011;59201;59.902;10.520;2023-03-21T08:08:49;7.00;;;2.10;;
71387;SDS011;59201;59.902;10.520;2023-03-21T08:11:19;7.03;;;2.30;;
71387;SDS011;59201;59.902;10.520;2023-03-21T08:13:50;6.28;;;2.30;;
71387;SDS011;59201;59.902;10.520;2023-03-21T08:16:18;7.45;;;2.10;;
71387;SDS011;59201;59.902;10.520;2023-03-21T08:18:49;7.55;;;2.40;;
71387;SDS011;59201;59.902;10.520;2023-03-21T08:21:18;8.35;;;2.50;;
71387;SDS011;59201;59.902;10.520;2023-03-21T08:23:52;7.17;;;2.57;;
71387;SDS011;59201;59.902;10.520;2023-03-21T08:26:22;8.15;;;2.22;;
71387;SDS011;59201;59.902;10.520;2023-03-21T08:28:51;9.95;;;2.80;;
71387;SDS011;59201;59.902;10.520;2023-03-21T08:31:18;8.98;;;2.60;;
71387;SDS011;59201;59.902;10.520;2023-03-21T08:33:47;5.97;;;1.92;;
71387;SDS011;59201;59.902;10.520;2023-03-21T08:36:20;7.37;;;2.30;;
71387;SDS011;59201;59.902;10.520;2023-03-21T08:38:49;7.28;;;2.30;;
71387;SDS011;59201;59.902;10.520;2023-03-21T08:41:30;7.53;;;2.13;;
71387;SDS011;59201;59.902;10.520;2023-03-21T08:43:58;8.15;;;2.60;;
71387;SDS011;59201;59.902;10.520;2023-03-21T08:46:33;8.23;;;2.30;;
71387;SDS011;59201;59.902;10.520;2023-03-21T08:49:01;7.67;;;2.40;;
71387;SDS011;59201;59.902;10.520;2023-03-21T08:51:32;6.15;;;2.13;;
71387;SDS011;59201;59.902;10.520;2023-03-21T08:54:02;9.77;;;2.75;;
71387;SDS011;59201;59.902;10.520;2023-03-21T08:56:35;6.43;;;2.00;;
71387;SDS011;59201;59.902;10.520;2023-03-21T08:59:03;7.80;;;2.60;;
71387;SDS011;59201;59.902;10.520;2023-03-21T09:01:31;9.03;;;2.50;;
71387;SDS011;59201;59.902;10.520;2023-03-21T09:04:04;7.13;;;2.20;;
71387;SDS011;59201;59.902;10.520;2023-03-21T09:06:39;6.00;;;2.13;;
71387;SDS011;59201;59.902;10.520;2023-03-21T09:09:10;9.23;;;2.50;;
71387;SDS011;59201;59.902;10.520;2023-03-21T09:11:38;9.23;;;2.97;;
71387;SDS011;59201;59.902;10.520;2023-03-21T09:14:08;6.77;;;2.70;;
71387;SDS011;59201;59.902;10.520;2023-03-21T09:16:36;8.65;;;2.83;;
71387;SDS011;59201;59.902;10.520;2023-03-21T09:19:05;10.23;;;2.95;;
71387;SDS011;59201;59.902;10.520;2023-03-21T09:21:33;7.40;;;2.72;;
71387;SDS011;59201;59.902;10.520;2023-03-21T09:24:02;7.57;;;2.63;;
71387;SDS011;59201;59.902;10.520;2023-03-21T09:26:31;8.03;;;2.50;;
71387;SDS011;59201;59.902;10.520;2023-03-21T09:28:59;7.45;;;2.60;;
71387;SDS011;59201;59.902;10.520;2023-03-21T09:31:30;8.05;;;3.13;;
71387;SDS011;59201;59.902;10.520;2023-03-21T09:34:01;10.43;;;2.78;;
71387;SDS011;59201;59.902;10.520;2023-03-21T09:36:31;9.43;;;2.95;;
71387;SDS011;59201;59.902;10.520;2023-03-21T09:39:00;6.47;;;2.50;;
71387;SDS011;59201;59.902;10.520;2023-03-21T09:49:05;11.27;;;3.42;;
71387;SDS011;59201;59.902;10.520;2023-03-21T09:51:40;7.57;;;2.57;;
71387;SDS011;59201;59.902;10.520;2023-03-21T09:54:12;11.27;;;3.20;;
71387;SDS011;59201;59.902;10.520;2023-03-21T09:56:45;12.50;;;3.85;;
71387;SDS011;59201;59.902;10.520;2023-03-21T09:59:27;9.55;;;3.40;;
71387;SDS011;59201;59.902;10.520;2023-03-21T10:01:57;11.50;;;3.45;;
71387;SDS011;59201;59.902;10.520;2023-03-21T10:04:27;9.43;;;3.13;;
71387;SDS011;59201;59.902;10.520;2023-03-21T10:06:58;9.93;;;3.10;;
71387;SDS011;59201;59.902;10.520;2023-03-21T10:09:27;16.08;;;4.05;;
71387;SDS011;59201;59.902;10.520;2023-03-21T10:12:05;8.40;;;2.95;;
71387;SDS011;59201;59.902;10.520;2023-03-21T10:14:35;13.68;;;3.13;;
71387;SDS011;59201;59.902;10.520;2023-03-21T10:19:32;9.70;;;3.20;;
71387;SDS011;59201;59.902;10.520;2023-03-21T10:22:00;11.20;;;3.50;;
71387;SDS011;59201;59.902;10.520;2023-03-21T10:24:31;8.75;;;3.40;;
71387;SDS011;59201;59.902;10.520;2023-03-21T10:27:00;10.57;;;3.22;;
71387;SDS011;59201;59.902;10.520;2023-03-21T10:29:34;13.77;;;3.53;;
71387;SDS011;59201;59.902;10.520;2023-03-21T10:32:07;12.25;;;3.13;;
71387;SDS011;59201;59.902;10.520;2023-03-21T10:34:43;9.93;;;3.00;;
71387;SDS011;59201;59.902;10.520;2023-03-21T10:37:13;7.68;;;3.20;;
71387;SDS011;59201;59.902;10.520;2023-03-21T10:39:51;7.82;;;3.15;;
71387;SDS011;59201;59.902;10.520;2023-03-21T10:42:21;10.60;;;3.47;;
71387;SDS011;59201;59.902;10.520;2023-03-21T10:44:52;11.38;;;3.42;;
71387;SDS011;59201;59.902;10.520;2023-03-21T10:47:20;9.32;;;3.88;;
71387;SDS011;59201;59.902;10.520;2023-03-21T10:49:48;7.65;;;3.55;;
71387;SDS011;59201;59.902;10.520;2023-03-21T10:52:22;11.30;;;4.00;;
71387;SDS011;59201;59.902;10.520;2023-03-21T10:55:16;10.83;;;3.40;;
71387;SDS011;59201;59.902;10.520;2023-03-21T10:57:43;8.32;;;3.25;;
71387;SDS011;59201;59.902;10.520;2023-03-21T11:00:12;14.45;;;3.72;;
71387;SDS011;59201;59.902;10.520;2023-03-21T11:02:48;10.38;;;3.63;;
71387;SDS011;59201;59.902;10.520;2023-03-21T11:05:20;9.30;;;3.70;;
71387;SDS011;59201;59.902;10.520;2023-03-21T11:07:55;12.27;;;3.57;;
71387;SDS011;59201;59.902;10.520;2023-03-21T11:10:29;12.82;;;4.07;;
71387;SDS011;59201;59.902;10.520;2023-03-21T11:12:59;11.18;;;4.20;;
71387;SDS011;59201;59.902;10.520;2023-03-21T11:15:40;9.85;;;4.00;;
71387;SDS011;59201;59.902;10.520;2023-03-21T11:18:21;12.43;;;4.40;;
71387;SDS011;59201;59.902;10.520;2023-03-21T11:21:01;9.60;;;3.93;;
71387;SDS011;59201;59.902;10.520;2023-03-21T11:23:33;11.77;;;4.00;;
71387;SDS011;59201;59.902;10.520;2023-03-21T11:26:02;11.05;;;3.72;;
71387;SDS011;59201;59.902;10.520;2023-03-21T11:28:40;9.00;;;4.18;;
71387;SDS011;59201;59.902;10.520;2023-03-21T11:31:09;14.07;;;4.55;;
71387;SDS011;59201;59.902;10.520;2023-03-21T11:33:39;10.97;;;4.23;;
71387;SDS011;59201;59.902;10.520;2023-03-21T11:38:48;10.68;;;3.97;;
71387;SDS011;59201;59.902;10.520;2023-03-21T11:41:24;12.32;;;4.45;;
71387;SDS011;59201;59.902;10.520;2023-03-21T11:43:55;10.77;;;4.32;;
71387;SDS011;59201;59.902;10.520;2023-03-21T11:46:27;8.63;;;3.80;;
71387;SDS011;59201;59.902;10.520;2023-03-21T11:48:57;11.25;;;4.20;;
71387;SDS011;59201;59.902;10.520;2023-03-21T12:05:10;12.13;;;4.90;;
71387;SDS011;59201;59.902;10.520;2023-03-21T12:10:43;14.13;;;4.80;;
71387;SDS011;59201;59.902;10.520;2023-03-21T12:18:36;12.00;;;4.57;;
71387;SDS011;59201;59.902;10.520;2023-03-21T12:21:12;12.82;;;4.80;;
71387;SDS011;59201;59.902;10.520;2023-03-21T12:26:21;12.77;;;4.70;;
71387;SDS011;59201;59.902;10.520;2023-03-21T12:28:56;11.90;;;4.85;;
71387;SDS011;59201;59.902;10.520;2023-03-21T12:36:28;12.20;;;4.55;;
71387;SDS011;59201;59.902;10.520;2023-03-21T12:44:17;13.02;;;4.72;;
71387;SDS011;59201;59.902;10.520;2023-03-21T12:46:50;13.65;;;5.47;;
71387;SDS011;59201;59.902;10.520;2023-03-21T12:52:00;14.10;;;5.37;;
71387;SDS011;59201;59.902;10.520;2023-03-21T12:54:30;15.52;;;5.55;;
71387;SDS011;59201;59.902;10.520;2023-03-21T12:57:01;15.07;;;5.35;;
71387;SDS011;59201;59.902;10.520;2023-03-21T13:02:19;14.38;;;6.00;;
71387;SDS011;59201;59.902;10.520;2023-03-21T13:05:02;14.67;;;5.70;;
71387;SDS011;59201;59.902;10.520;2023-03-21T13:07:34;11.40;;;5.18;;
71387;SDS011;59201;59.902;10.520;2023-03-21T13:10:16;13.85;;;4.75;;
71387;SDS011;59201;59.902;10.520;2023-03-21T13:18:03;15.17;;;5.53;;
71387;SDS011;59201;59.902;10.520;2023-03-21T13:20:42;13.52;;;5.65;;
71387;SDS011;59201;59.902;10.520;2023-03-21T13:23:12;17.15;;;5.72;;
71387;SDS011;59201;59.902;10.520;2023-03-21T13:25:44;13.57;;;5.60;;
71387;SDS011;59201;59.902;10.520;2023-03-21T13:28:22;13.40;;;6.07;;
71387;SDS011;59201;59.902;10.520;2023-03-21T13:30:53;12.80;;;5.53;;
71387;SDS011;59201;59.902;10.520;2023-03-21T13:33:40;13.07;;;5.53;;
71387;SDS011;59201;59.902;10.520;2023-03-21T13:36:14;11.75;;;4.85;;
71387;SDS011;59201;59.902;10.520;2023-03-21T13:38:48;12.75;;;4.65;;
71387;SDS011;59201;59.902;10.520;2023-03-21T13:41:18;10.48;;;4.18;;
71387;SDS011;59201;59.902;10.520;2023-03-21T13:49:12;11.13;;;5.00;;
71387;SDS011;59201;59.902;10.520;2023-03-21T13:51:52;12.73;;;4.43;;
71387;SDS011;59201;59.902;10.520;2023-03-21T13:54:42;13.55;;;4.80;;
71387;SDS011;59201;59.902;10.520;2023-03-21T13:57:20;8.73;;;3.73;;
71387;SDS011;59201;59.902;10.520;2023-03-21T13:59:51;10.25;;;3.83;;
71387;SDS011;59201;59.902;10.520;2023-03-21T14:02:44;10.38;;;4.15;;
71387;SDS011;59201;59.902;10.520;2023-03-21T14:05:19;10.38;;;4.10;;
71387;SDS011;59201;59.902;10.520;2023-03-21T14:07:48;10.50;;;4.30;;
71387;SDS011;59201;59.902;10.520;2023-03-21T14:10:25;9.80;;;3.50;;
71387;SDS011;59201;59.902;10.520;2023-03-21T14:12:54;10.27;;;3.78;;
71387;SDS011;59201;59.902;10.520;2023-03-21T14:15:26;11.60;;;4.03;;
71387;SDS011;59201;59.902;10.520;2023-03-21T14:17:57;14.02;;;4.10;;
71387;SDS011;59201;59.902;10.520;2023-03-21T14:20:34;10.40;;;3.75;;
71387;SDS011;59201;59.902;10.520;2023-03-21T14:23:05;10.20;;;3.93;;
71387;SDS011;59201;59.902;10.520;2023-03-21T14:25:35;8.45;;;3.55;;
71387;SDS011;59201;59.902;10.520;2023-03-21T14:28:07;9.25;;;3.47;;
71387;SDS011;59201;59.902;10.520;2023-03-21T14:30:37;7.63;;;2.90;;
71387;SDS011;59201;59.902;10.520;2023-03-21T14:35:46;9.30;;;3.87;;
71387;SDS011;59201;59.902;10.520;2023-03-21T14:38:19;7.93;;;3.70;;
71387;SDS011;59201;59.902;10.520;2023-03-21T14:40:48;11.02;;;3.75;;
71387;SDS011;59201;59.902;10.520;2023-03-21T14:43:20;9.05;;;3.00;;
71387;SDS011;59201;59.902;10.520;2023-03-21T14:45:49;13.73;;;4.30;;
71387;SDS011;59201;59.902;10.520;2023-03-21T14:48:29;13.17;;;4.13;;
71387;SDS011;59201;59.902;10.520;2023-03-21T14:51:04;10.25;;;4.00;;
71387;SDS011;59201;59.902;10.520;2023-03-21T14:53:36;10.18;;;4.10;;
71387;SDS011;59201;59.902;10.520;2023-03-21T14:56:06;11.23;;;4.07;;
71387;SDS011;59201;59.902;10.520;2023-03-21T14:58:38;12.90;;;4.53;;
71387;SDS011;59201;59.902;10.520;2023-03-21T15:01:10;13.63;;;4.43;;
71387;SDS011;59201;59.902;10.520;2023-03-21T15:03:42;11.95;;;3.70;;
71387;SDS011;59201;59.902;10.520;2023-03-21T15:06:12;22.90;;;6.57;;
71387;SDS011;59201;59.902;10.520;2023-03-21T15:08:52;10.82;;;3.83;;
71387;SDS011;59201;59.902;10.520;2023-03-21T15:11:33;12.25;;;4.43;;
71387;SDS011;59201;59.902;10.520;2023-03-21T15:14:01;9.67;;;3.83;;
71387;SDS011;59201;59.902;10.520;2023-03-21T15:16:30;14.60;;;4.22;;
71387;SDS011;59201;59.902;10.520;2023-03-21T15:19:02;15.00;;;5.95;;
71387;SDS011;59201;59.902;10.520;2023-03-21T15:21:34;15.80;;;6.05;;
71387;SDS011;59201;59.902;10.520;2023-03-21T15:24:08;18.02;;;6.10;;
71387;SDS011;59201;59.902;10.520;2023-03-21T15:26:42;13.90;;;5.40;;
71387;SDS011;59201;59.902;10.520;2023-03-21T15:29:11;16.27;;;5.22;;
71387;SDS011;59201;59.902;10.520;2023-03-21T15:31:39;12.13;;;5.20;;
71387;SDS011;59201;59.902;10.520;2023-03-21T15:34:16;14.38;;;5.65;;
71387;SDS011;59201;59.902;10.520;2023-03-21T15:36:46;11.65;;;4.82;;
71387;SDS011;59201;59.902;10.520;2023-03-21T15:39:16;13.67;;;5.57;;
71387;SDS011;59201;59.902;10.520;2023-03-21T15:42:04;11.48;;;5.00;;
71387;SDS011;59201;59.902;10.520;2023-03-21T15:44:33;13.07;;;5.43;;
71387;SDS011;59201;59.902;10.520;2023-03-21T15:47:01;12.57;;;5.88;;
71387;SDS011;59201;59.902;10.520;2023-03-21T15:49:31;13.80;;;5.35;;
71387;SDS011;59201;59.902;10.520;2023-03-21T15:52:08;13.77;;;5.30;;
71387;SDS011;59201;59.902;10.520;2023-03-21T15:57:23;12.80;;;5.18;;
71387;SDS011;59201;59.902;10.520;2023-03-21T15:59:55;13.02;;;4.53;;
71387;SDS011;59201;59.902;10.520;2023-03-21T16:02:28;13.10;;;5.22;;
71387;SDS011;59201;59.902;10.520;2023-03-21T16:07:25;12.80;;;4.82;;
71387;SDS011;59201;59.902;10.520;2023-03-21T16:09:59;14.27;;;6.15;;
71387;SDS011;59201;59.902;10.520;2023-03-21T16:12:29;11.68;;;4.85;;
71387;SDS011;59201;59.902;10.520;2023-03-21T16:14:59;13.02;;;5.47;;
71387;SDS011;59201;59.902;10.520;2023-03-21T16:17:34;11.20;;;5.20;;
71387;SDS011;59201;59.902;10.520;2023-03-21T16:20:05;11.50;;;4.95;;
71387;SDS011;59201;59.902;10.520;2023-03-21T16:22:40;13.10;;;5.15;;
71387;SDS011;59201;59.902;10.520;2023-03-21T16:25:09;12.55;;;5.15;;
71387;SDS011;59201;59.902;10.520;2023-03-21T16:27:39;13.13;;;5.50;;
71387;SDS011;59201;59.902;10.520;2023-03-21T16:30:10;12.20;;;5.33;;
71387;SDS011;59201;59.902;10.520;2023-03-21T16:32:39;12.63;;;4.65;;
71387;SDS011;59201;59.902;10.520;2023-03-21T16:35:08;13.13;;;4.93;;
71387;SDS011;59201;59.902;10.520;2023-03-21T16:37:37;12.43;;;5.10;;
71387;SDS011;59201;59.902;10.520;2023-03-21T16:40:26;13.85;;;4.63;;
71387;SDS011;59201;59.902;10.520;2023-03-21T16:42:55;12.03;;;4.90;;
71387;SDS011;59201;59.902;10.520;2023-03-21T16:45:24;12.55;;;5.15;;
71387;SDS011;59201;59.902;10.520;2023-03-21T16:50:59;15.18;;;6.07;;
71387;SDS011;59201;59.902;10.520;2023-03-21T16:53:34;14.25;;;6.25;;
71387;SDS011;59201;59.902;10.520;2023-03-21T16:56:04;10.57;;;4.20;;